sensor_id;sensor_type;location;lat;lon;timestamp;temperature;humidity
19348;DHT22;9810;52.480;9.806;2022-08-11T00:00:12;15.60;99.90
19348;DHT22;9810;52.480;9.806;2022-08-11T00:02:43;15.60;99.90
19348;DHT22;9810;52.480;9.806;2022-08-11T00:05:14;15.60;99.90
19348;DHT22;9810;52.480;9.806;2022-08-11T00:07:44;15.60;99.90
19348;DHT22;9810;52.480;9.806;2022-08-11T00:10:16;15.60;99.90
19348;DHT22;9810;52.480;9.806;2022-08-11T00:12:50;15.60;99.90
19348;DHT22;9810;52.480;9.806;2022-08-11T00:15:21;15.50;99.90
19348;DHT22;9810;52.480;9.806;2022-08-11T00:17:55;16.00;99.90
19348;DHT22;9810;52.480;9.806;2022-08-11T00:20:29;15.90;99.90
19348;DHT22;9810;52.480;9.806;2022-08-11T00:23:02;15.60;99.90
19348;DHT22;9810;52.480;9.806;2022-08-11T00:25:37;15.40;99.90
19348;DHT22;9810;52.480;9.806;2022-08-11T00:28:22;15.20;99.90
19348;DHT22;9810;52.480;9.806;2022-08-11T00:30:51;15.40;99.90
19348;DHT22;9810;52.480;9.806;2022-08-11T00:33:23;15.40;99.90
19348;DHT22;9810;52.480;9.806;2022-08-11T00:35:55;15.20;99.90
19348;DHT22;9810;52.480;9.806;2022-08-11T00:38:25;15.10;99.90
19348;DHT22;9810;52.480;9.806;2022-08-11T00:41:00;15.10;99.90
19348;DHT22;9810;52.480;9.806;2022-08-11T00:43:49;15.00;99.90
19348;DHT22;9810;52.480;9.806;2022-08-11T00:46:28;14.80;99.90
19348;DHT22;9810;52.480;9.806;2022-08-11T00:49:16;14.70;99.90
19348;DHT22;9810;52.480;9.806;2022-08-11T00:51:58;14.60;99.90
19348;DHT22;9810;52.480;9.806;2022-08-11T00:54:54;14.90;99.90
19348;DHT22;9810;52.480;9.806;2022-08-11T01:00:32;14.60;99.90
19348;DHT22;9810;52.480;9.806;2022-08-11T01:03:17;14.30;99.90
19348;DHT22;9810;52.480;9.806;2022-08-11T01:09:26;14.60;99.90
19348;DHT22;9810;52.480;9.806;2022-08-11T01:12:20;15.00;99.90
19348;DHT22;9810;52.480;9.806;2022-08-11T01:18:24;14.40;99.90
19348;DHT22;9810;52.480;9.806;2022-08-11T01:24:42;14.70;99.90
19348;DHT22;9810;52.480;9.806;2022-08-11T01:30:19;14.50;99.90
19348;DHT22;9810;52.480;9.806;2022-08-11T01:46:04;13.70;99.90
19348;DHT22;9810;52.480;9.806;2022-08-11T01:48:40;13.80;99.90
19348;DHT22;9810;52.480;9.806;2022-08-11T01:51:16;13.70;99.90
19348;DHT22;9810;52.480;9.806;2022-08-11T01:53:53;13.90;99.90
19348;DHT22;9810;52.480;9.806;2022-08-11T01:56:33;14.00;99.90
19348;DHT22;9810;52.480;9.806;2022-08-11T01:59:11;13.90;99.90
19348;DHT22;9810;52.480;9.806;2022-08-11T02:02:25;13.90;99.90
19348;DHT22;9810;52.480;9.806;2022-08-11T02:05:20;13.90;99.90
19348;DHT22;9810;52.480;9.806;2022-08-11T02:07:55;14.00;99.90
19348;DHT22;9810;52.480;9.806;2022-08-11T02:10:30;14.00;99.90
19348;DHT22;9810;52.480;9.806;2022-08-11T02:13:36;13.90;99.90
19348;DHT22;9810;52.480;9.806;2022-08-11T02:16:24;13.50;99.90
19348;DHT22;9810;52.480;9.806;2022-08-11T02:19:03;13.20;99.90
19348;DHT22;9810;52.480;9.806;2022-08-11T02:21:53;13.10;99.90
19348;DHT22;9810;52.480;9.806;2022-08-11T02:24:45;13.00;99.90
19348;DHT22;9810;52.480;9.806;2022-08-11T02:27:17;13.00;99.90
19348;DHT22;9810;52.480;9.806;2022-08-11T02:29:50;12.90;99.90
19348;DHT22;9810;52.480;9.806;2022-08-11T02:32:27;12.90;99.90
19348;DHT22;9810;52.480;9.806;2022-08-11T02:35:17;12.90;99.90
19348;DHT22;9810;52.480;9.806;2022-08-11T02:37:52;12.90;99.90
19348;DHT22;9810;52.480;9.806;2022-08-11T02:40:29;12.90;99.90
19348;DHT22;9810;52.480;9.806;2022-08-11T02:43:08;12.90;99.90
19348;DHT22;9810;52.480;9.806;2022-08-11T02:45:55;12.90;99.90
19348;DHT22;9810;52.480;9.806;2022-08-11T02:48:47;12.80;99.90
19348;DHT22;9810;52.480;9.806;2022-08-11T02:51:39;12.80;99.90
19348;DHT22;9810;52.480;9.806;2022-08-11T02:54:14;12.90;99.90
19348;DHT22;9810;52.480;9.806;2022-08-11T02:56:49;12.90;99.90
19348;DHT22;9810;52.480;9.806;2022-08-11T02:59:36;12.70;99.90
19348;DHT22;9810;52.480;9.806;2022-08-11T03:05:30;13.20;99.90
19348;DHT22;9810;52.480;9.806;2022-08-11T03:08:21;13.30;99.90
19348;DHT22;9810;52.480;9.806;2022-08-11T03:10:56;12.90;99.90
19348;DHT22;9810;52.480;9.806;2022-08-11T03:13:51;12.70;99.90
19348;DHT22;9810;52.480;9.806;2022-08-11T03:16:45;12.90;99.90
19348;DHT22;9810;52.480;9.806;2022-08-11T03:19:23;12.70;99.90
19348;DHT22;9810;52.480;9.806;2022-08-11T03:22:01;12.60;99.90
19348;DHT22;9810;52.480;9.806;2022-08-11T03:24:37;12.40;99.90
19348;DHT22;9810;52.480;9.806;2022-08-11T03:27:07;12.40;99.90
19348;DHT22;9810;52.480;9.806;2022-08-11T03:29:41;12.60;99.90
19348;DHT22;9810;52.480;9.806;2022-08-11T03:32:23;12.60;99.90
19348;DHT22;9810;52.480;9.806;2022-08-11T03:34:54;12.60;99.90
19348;DHT22;9810;52.480;9.806;2022-08-11T03:37:37;12.60;99.90
19348;DHT22;9810;52.480;9.806;2022-08-11T03:40:40;12.50;99.90
19348;DHT22;9810;52.480;9.806;2022-08-11T03:43:44;12.50;99.90
19348;DHT22;9810;52.480;9.806;2022-08-11T03:46:27;12.50;99.90
19348;DHT22;9810;52.480;9.806;2022-08-11T03:49:06;12.40;99.90
19348;DHT22;9810;52.480;9.806;2022-08-11T03:51:46;12.30;99.90
19348;DHT22;9810;52.480;9.806;2022-08-11T03:54:25;12.40;99.90
19348;DHT22;9810;52.480;9.806;2022-08-11T04:00:44;12.30;99.90
19348;DHT22;9810;52.480;9.806;2022-08-11T04:03:44;12.40;99.90
19348;DHT22;9810;52.480;9.806;2022-08-11T04:09:53;12.30;99.90
19348;DHT22;9810;52.480;9.806;2022-08-11T04:13:00;12.30;99.90
19348;DHT22;9810;52.480;9.806;2022-08-11T04:15:58;12.30;99.90
19348;DHT22;9810;52.480;9.806;2022-08-11T04:19:03;12.30;99.90
19348;DHT22;9810;52.480;9.806;2022-08-11T04:22:08;12.40;99.90
19348;DHT22;9810;52.480;9.806;2022-08-11T04:31:17;12.50;99.90
19348;DHT22;9810;52.480;9.806;2022-08-11T04:33:58;12.50;99.90
19348;DHT22;9810;52.480;9.806;2022-08-11T04:36:57;12.30;99.90
19348;DHT22;9810;52.480;9.806;2022-08-11T04:43:14;12.70;99.90
19348;DHT22;9810;52.480;9.806;2022-08-11T04:46:12;12.60;99.90
19348;DHT22;9810;52.480;9.806;2022-08-11T04:55:31;13.20;99.90
19348;DHT22;9810;52.480;9.806;2022-08-11T04:58:27;13.40;99.90
19348;DHT22;9810;52.480;9.806;2022-08-11T05:01:26;13.50;99.90
19348;DHT22;9810;52.480;9.806;2022-08-11T05:04:38;13.50;99.90
19348;DHT22;9810;52.480;9.806;2022-08-11T05:07:58;13.50;99.90
19348;DHT22;9810;52.480;9.806;2022-08-11T05:10:47;13.60;99.90
19348;DHT22;9810;52.480;9.806;2022-08-11T05:13:28;13.70;99.90
19348;DHT22;9810;52.480;9.806;2022-08-11T05:16:16;13.70;99.90
19348;DHT22;9810;52.480;9.806;2022-08-11T05:19:02;13.70;99.90
19348;DHT22;9810;52.480;9.806;2022-08-11T05:21:52;13.70;99.90
19348;DHT22;9810;52.480;9.806;2022-08-11T05:24:41;13.70;99.90
19348;DHT22;9810;52.480;9.806;2022-08-11T05:27:31;13.90;99.90
19348;DHT22;9810;52.480;9.806;2022-08-11T05:30:18;14.00;99.90
19348;DHT22;9810;52.480;9.806;2022-08-11T05:33:06;14.20;99.90
19348;DHT22;9810;52.480;9.806;2022-08-11T05:35:59;14.30;99.90
19348;DHT22;9810;52.480;9.806;2022-08-11T05:38:32;14.40;99.90
19348;DHT22;9810;52.480;9.806;2022-08-11T05:41:18;14.50;99.90
19348;DHT22;9810;52.480;9.806;2022-08-11T05:44:04;14.70;99.90
19348;DHT22;9810;52.480;9.806;2022-08-11T05:46:50;14.90;99.90
19348;DHT22;9810;52.480;9.806;2022-08-11T05:49:36;15.20;99.90
19348;DHT22;9810;52.480;9.806;2022-08-11T05:52:22;15.30;99.90
19348;DHT22;9810;52.480;9.806;2022-08-11T05:55:09;15.50;99.90
19348;DHT22;9810;52.480;9.806;2022-08-11T05:57:55;15.90;99.90
19348;DHT22;9810;52.480;9.806;2022-08-11T06:00:23;16.00;99.90
19348;DHT22;9810;52.480;9.806;2022-08-11T06:02:54;16.40;99.90
19348;DHT22;9810;52.480;9.806;2022-08-11T06:05:22;16.60;99.90
19348;DHT22;9810;52.480;9.806;2022-08-11T06:07:53;16.70;99.90
19348;DHT22;9810;52.480;9.806;2022-08-11T06:10:26;17.20;99.90
19348;DHT22;9810;52.480;9.806;2022-08-11T06:12:58;17.40;99.90
19348;DHT22;9810;52.480;9.806;2022-08-11T06:15:27;17.50;99.90
19348;DHT22;9810;52.480;9.806;2022-08-11T06:17:59;17.50;99.90
19348;DHT22;9810;52.480;9.806;2022-08-11T06:20:28;17.60;99.90
19348;DHT22;9810;52.480;9.806;2022-08-11T06:23:04;18.00;99.90
19348;DHT22;9810;52.480;9.806;2022-08-11T06:25:35;18.20;99.90
19348;DHT22;9810;52.480;9.806;2022-08-11T06:28:05;18.30;99.90
19348;DHT22;9810;52.480;9.806;2022-08-11T06:30:35;18.40;99.90
19348;DHT22;9810;52.480;9.806;2022-08-11T06:33:10;18.60;99.90
19348;DHT22;9810;52.480;9.806;2022-08-11T06:35:46;18.70;99.90
19348;DHT22;9810;52.480;9.806;2022-08-11T06:38:24;18.80;99.90
19348;DHT22;9810;52.480;9.806;2022-08-11T06:40:57;18.90;99.90
19348;DHT22;9810;52.480;9.806;2022-08-11T06:43:48;19.00;99.90
19348;DHT22;9810;52.480;9.806;2022-08-11T06:46:24;19.00;99.90
19348;DHT22;9810;52.480;9.806;2022-08-11T06:48:57;19.20;99.90
19348;DHT22;9810;52.480;9.806;2022-08-11T06:51:27;19.50;99.90
19348;DHT22;9810;52.480;9.806;2022-08-11T06:53:56;19.60;99.90
19348;DHT22;9810;52.480;9.806;2022-08-11T06:56:26;19.80;99.90
19348;DHT22;9810;52.480;9.806;2022-08-11T06:59:13;19.70;99.90
19348;DHT22;9810;52.480;9.806;2022-08-11T07:02:05;19.80;99.90
19348;DHT22;9810;52.480;9.806;2022-08-11T07:04:43;20.00;99.90
19348;DHT22;9810;52.480;9.806;2022-08-11T07:10:54;20.50;99.90
19348;DHT22;9810;52.480;9.806;2022-08-11T07:13:45;20.70;99.90
19348;DHT22;9810;52.480;9.806;2022-08-11T07:16:31;20.80;99.90
19348;DHT22;9810;52.480;9.806;2022-08-11T07:19:02;21.00;99.90
19348;DHT22;9810;52.480;9.806;2022-08-11T07:21:49;21.20;99.90
19348;DHT22;9810;52.480;9.806;2022-08-11T07:24:38;21.20;99.90
19348;DHT22;9810;52.480;9.806;2022-08-11T07:27:25;21.20;99.90
19348;DHT22;9810;52.480;9.806;2022-08-11T07:30:11;21.40;99.90
19348;DHT22;9810;52.480;9.806;2022-08-11T07:32:46;21.80;99.90
19348;DHT22;9810;52.480;9.806;2022-08-11T07:35:16;22.10;99.90
19348;DHT22;9810;52.480;9.806;2022-08-11T07:37:52;22.30;99.90
19348;DHT22;9810;52.480;9.806;2022-08-11T07:40:22;22.20;99.90
19348;DHT22;9810;52.480;9.806;2022-08-11T07:42:51;22.30;99.90
19348;DHT22;9810;52.480;9.806;2022-08-11T07:45:19;22.40;99.90
19348;DHT22;9810;52.480;9.806;2022-08-11T07:48:06;22.80;99.90
19348;DHT22;9810;52.480;9.806;2022-08-11T07:50:50;24.00;99.90
19348;DHT22;9810;52.480;9.806;2022-08-11T07:53:37;25.00;99.90
19348;DHT22;9810;52.480;9.806;2022-08-11T07:56:06;25.70;99.90
19348;DHT22;9810;52.480;9.806;2022-08-11T07:58:35;27.80;99.90
19348;DHT22;9810;52.480;9.806;2022-08-11T08:01:21;29.20;99.90
19348;DHT22;9810;52.480;9.806;2022-08-11T08:04:08;29.20;99.90
19348;DHT22;9810;52.480;9.806;2022-08-11T08:06:53;29.80;99.90
19348;DHT22;9810;52.480;9.806;2022-08-11T08:09:41;30.20;99.90
19348;DHT22;9810;52.480;9.806;2022-08-11T08:12:27;28.90;99.90
19348;DHT22;9810;52.480;9.806;2022-08-11T08:15:14;29.90;99.90
19348;DHT22;9810;52.480;9.806;2022-08-11T08:18:01;30.40;99.90
19348;DHT22;9810;52.480;9.806;2022-08-11T08:20:34;29.60;99.90
19348;DHT22;9810;52.480;9.806;2022-08-11T08:23:02;30.20;99.90
19348;DHT22;9810;52.480;9.806;2022-08-11T08:25:34;30.40;99.90
19348;DHT22;9810;52.480;9.806;2022-08-11T08:28:08;29.60;99.90
19348;DHT22;9810;52.480;9.806;2022-08-11T08:30:37;30.80;99.70
19348;DHT22;9810;52.480;9.806;2022-08-11T08:33:13;31.60;97.70
19348;DHT22;9810;52.480;9.806;2022-08-11T08:35:42;32.70;96.80
19348;DHT22;9810;52.480;9.806;2022-08-11T08:38:10;33.00;95.30
19348;DHT22;9810;52.480;9.806;2022-08-11T08:40:42;32.20;95.00
19348;DHT22;9810;52.480;9.806;2022-08-11T08:43:14;33.90;93.00
19348;DHT22;9810;52.480;9.806;2022-08-11T08:45:43;32.80;92.70
19348;DHT22;9810;52.480;9.806;2022-08-11T08:48:12;33.40;93.90
19348;DHT22;9810;52.480;9.806;2022-08-11T08:50:45;33.30;91.30
19348;DHT22;9810;52.480;9.806;2022-08-11T08:53:34;35.10;90.10
19348;DHT22;9810;52.480;9.806;2022-08-11T08:56:06;34.80;86.40
19348;DHT22;9810;52.480;9.806;2022-08-11T08:58:36;34.30;83.80
19348;DHT22;9810;52.480;9.806;2022-08-11T09:01:05;35.30;81.90
19348;DHT22;9810;52.480;9.806;2022-08-11T09:03:35;36.10;82.10
19348;DHT22;9810;52.480;9.806;2022-08-11T09:06:03;36.50;80.50
19348;DHT22;9810;52.480;9.806;2022-08-11T09:08:30;34.80;79.70
19348;DHT22;9810;52.480;9.806;2022-08-11T09:11:00;32.90;82.40
19348;DHT22;9810;52.480;9.806;2022-08-11T09:13:55;33.70;82.40
19348;DHT22;9810;52.480;9.806;2022-08-11T09:16:23;33.50;78.70
19348;DHT22;9810;52.480;9.806;2022-08-11T09:18:51;34.30;78.60
19348;DHT22;9810;52.480;9.806;2022-08-11T09:21:19;36.30;74.50
19348;DHT22;9810;52.480;9.806;2022-08-11T09:23:47;35.30;73.00
19348;DHT22;9810;52.480;9.806;2022-08-11T09:26:33;35.50;73.90
19348;DHT22;9810;52.480;9.806;2022-08-11T09:29:29;35.70;73.80
19348;DHT22;9810;52.480;9.806;2022-08-11T09:31:57;35.70;73.50
19348;DHT22;9810;52.480;9.806;2022-08-11T09:34:25;34.40;74.40
19348;DHT22;9810;52.480;9.806;2022-08-11T09:36:53;35.30;73.40
19348;DHT22;9810;52.480;9.806;2022-08-11T09:39:40;35.00;72.20
19348;DHT22;9810;52.480;9.806;2022-08-11T09:42:26;36.10;70.60
19348;DHT22;9810;52.480;9.806;2022-08-11T09:45:15;37.20;70.20
19348;DHT22;9810;52.480;9.806;2022-08-11T09:47:42;37.70;66.50
19348;DHT22;9810;52.480;9.806;2022-08-11T09:50:10;38.80;64.90
19348;DHT22;9810;52.480;9.806;2022-08-11T09:52:39;37.90;64.30
19348;DHT22;9810;52.480;9.806;2022-08-11T09:55:07;38.10;60.90
19348;DHT22;9810;52.480;9.806;2022-08-11T09:57:38;38.70;59.80
19348;DHT22;9810;52.480;9.806;2022-08-11T10:00:30;36.10;61.00
19348;DHT22;9810;52.480;9.806;2022-08-11T10:02:58;37.50;57.90
19348;DHT22;9810;52.480;9.806;2022-08-11T10:05:26;37.60;58.00
19348;DHT22;9810;52.480;9.806;2022-08-11T10:08:13;38.60;58.30
19348;DHT22;9810;52.480;9.806;2022-08-11T10:10:45;39.10;56.40
19348;DHT22;9810;52.480;9.806;2022-08-11T10:13:16;38.00;57.00
19348;DHT22;9810;52.480;9.806;2022-08-11T10:15:45;39.00;56.50
19348;DHT22;9810;52.480;9.806;2022-08-11T10:18:14;39.60;55.50
19348;DHT22;9810;52.480;9.806;2022-08-11T10:21:01;39.90;53.10
19348;DHT22;9810;52.480;9.806;2022-08-11T10:23:32;36.70;56.00
19348;DHT22;9810;52.480;9.806;2022-08-11T10:26:19;37.30;55.30
19348;DHT22;9810;52.480;9.806;2022-08-11T10:29:04;36.70;56.80
19348;DHT22;9810;52.480;9.806;2022-08-11T10:31:54;36.70;58.30
19348;DHT22;9810;52.480;9.806;2022-08-11T10:34:40;38.30;53.90
19348;DHT22;9810;52.480;9.806;2022-08-11T10:37:09;38.00;53.90
19348;DHT22;9810;52.480;9.806;2022-08-11T10:39:38;37.40;54.60
19348;DHT22;9810;52.480;9.806;2022-08-11T10:42:07;37.30;55.60
19348;DHT22;9810;52.480;9.806;2022-08-11T10:44:53;37.20;54.30
19348;DHT22;9810;52.480;9.806;2022-08-11T10:47:24;36.30;55.20
19348;DHT22;9810;52.480;9.806;2022-08-11T10:50:00;37.00;57.00
19348;DHT22;9810;52.480;9.806;2022-08-11T10:52:47;37.10;55.90
19348;DHT22;9810;52.480;9.806;2022-08-11T10:55:32;37.90;54.30
19348;DHT22;9810;52.480;9.806;2022-08-11T10:58:17;36.20;56.60
19348;DHT22;9810;52.480;9.806;2022-08-11T11:01:02;36.50;56.50
19348;DHT22;9810;52.480;9.806;2022-08-11T11:03:32;36.80;55.30
19348;DHT22;9810;52.480;9.806;2022-08-11T11:06:05;35.40;56.70
19348;DHT22;9810;52.480;9.806;2022-08-11T11:08:43;34.50;57.40
19348;DHT22;9810;52.480;9.806;2022-08-11T11:11:22;35.10;57.70
19348;DHT22;9810;52.480;9.806;2022-08-11T11:14:10;35.10;56.60
19348;DHT22;9810;52.480;9.806;2022-08-11T11:16:57;33.40;57.10
19348;DHT22;9810;52.480;9.806;2022-08-11T11:19:44;33.30;60.00
19348;DHT22;9810;52.480;9.806;2022-08-11T11:22:14;33.00;59.10
19348;DHT22;9810;52.480;9.806;2022-08-11T11:25:03;32.60;60.40
19348;DHT22;9810;52.480;9.806;2022-08-11T11:27:48;33.00;61.40
19348;DHT22;9810;52.480;9.806;2022-08-11T11:30:18;32.90;60.10
19348;DHT22;9810;52.480;9.806;2022-08-11T11:32:55;32.30;61.10
19348;DHT22;9810;52.480;9.806;2022-08-11T11:35:36;33.00;61.90
19348;DHT22;9810;52.480;9.806;2022-08-11T11:38:09;33.10;59.80
19348;DHT22;9810;52.480;9.806;2022-08-11T11:40:38;32.10;58.80
19348;DHT22;9810;52.480;9.806;2022-08-11T11:43:06;31.60;59.90
19348;DHT22;9810;52.480;9.806;2022-08-11T11:45:33;31.20;60.90
19348;DHT22;9810;52.480;9.806;2022-08-11T11:48:01;30.90;61.60
19348;DHT22;9810;52.480;9.806;2022-08-11T11:50:32;30.70;62.80
19348;DHT22;9810;52.480;9.806;2022-08-11T11:53:03;30.30;63.30
19348;DHT22;9810;52.480;9.806;2022-08-11T11:55:32;30.80;63.00
19348;DHT22;9810;52.480;9.806;2022-08-11T11:58:02;30.60;64.90
19348;DHT22;9810;52.480;9.806;2022-08-11T12:00:47;31.10;60.70
19348;DHT22;9810;52.480;9.806;2022-08-11T12:03:33;31.30;64.60
19348;DHT22;9810;52.480;9.806;2022-08-11T12:06:04;31.60;61.30
19348;DHT22;9810;52.480;9.806;2022-08-11T12:08:33;31.80;61.60
19348;DHT22;9810;52.480;9.806;2022-08-11T12:11:03;31.00;61.70
19348;DHT22;9810;52.480;9.806;2022-08-11T12:13:51;30.70;62.20
19348;DHT22;9810;52.480;9.806;2022-08-11T12:16:20;30.70;62.60
19348;DHT22;9810;52.480;9.806;2022-08-11T12:18:50;30.80;63.20
19348;DHT22;9810;52.480;9.806;2022-08-11T12:21:21;30.80;62.90
19348;DHT22;9810;52.480;9.806;2022-08-11T12:23:49;31.00;63.70
19348;DHT22;9810;52.480;9.806;2022-08-11T12:26:35;31.40;63.40
19348;DHT22;9810;52.480;9.806;2022-08-11T12:29:22;31.10;59.80
19348;DHT22;9810;52.480;9.806;2022-08-11T12:31:52;31.00;61.30
19348;DHT22;9810;52.480;9.806;2022-08-11T12:34:20;31.40;60.70
19348;DHT22;9810;52.480;9.806;2022-08-11T12:36:55;31.40;57.00
19348;DHT22;9810;52.480;9.806;2022-08-11T12:39:24;30.60;59.00
19348;DHT22;9810;52.480;9.806;2022-08-11T12:42:07;30.70;60.30
19348;DHT22;9810;52.480;9.806;2022-08-11T12:44:54;30.90;60.10
19348;DHT22;9810;52.480;9.806;2022-08-11T12:47:42;31.00;61.10
19348;DHT22;9810;52.480;9.806;2022-08-11T12:50:41;31.00;59.70
19348;DHT22;9810;52.480;9.806;2022-08-11T12:53:29;30.50;61.30
19348;DHT22;9810;52.480;9.806;2022-08-11T12:56:03;30.50;60.60
19348;DHT22;9810;52.480;9.806;2022-08-11T12:58:50;30.50;60.50
19348;DHT22;9810;52.480;9.806;2022-08-11T13:01:19;30.70;61.60
19348;DHT22;9810;52.480;9.806;2022-08-11T13:04:04;30.70;59.80
19348;DHT22;9810;52.480;9.806;2022-08-11T13:06:50;30.80;61.10
19348;DHT22;9810;52.480;9.806;2022-08-11T13:09:20;31.00;62.50
19348;DHT22;9810;52.480;9.806;2022-08-11T13:11:48;31.30;61.70
19348;DHT22;9810;52.480;9.806;2022-08-11T13:14:33;31.40;62.40
19348;DHT22;9810;52.480;9.806;2022-08-11T13:17:01;30.80;61.60
19348;DHT22;9810;52.480;9.806;2022-08-11T13:19:47;30.90;61.80
19348;DHT22;9810;52.480;9.806;2022-08-11T13:22:17;30.90;62.70
19348;DHT22;9810;52.480;9.806;2022-08-11T13:24:47;30.60;60.20
19348;DHT22;9810;52.480;9.806;2022-08-11T13:27:15;30.30;60.00
19348;DHT22;9810;52.480;9.806;2022-08-11T13:29:45;30.20;60.50
19348;DHT22;9810;52.480;9.806;2022-08-11T13:32:15;30.40;61.20
19348;DHT22;9810;52.480;9.806;2022-08-11T13:34:43;30.60;63.70
19348;DHT22;9810;52.480;9.806;2022-08-11T13:37:13;30.50;61.40
19348;DHT22;9810;52.480;9.806;2022-08-11T13:39:42;30.60;62.60
19348;DHT22;9810;52.480;9.806;2022-08-11T13:42:14;30.90;63.70
19348;DHT22;9810;52.480;9.806;2022-08-11T13:44:46;31.10;61.40
19348;DHT22;9810;52.480;9.806;2022-08-11T13:47:14;31.00;60.10
19348;DHT22;9810;52.480;9.806;2022-08-11T13:49:43;30.70;59.80
19348;DHT22;9810;52.480;9.806;2022-08-11T13:52:13;30.70;60.20
19348;DHT22;9810;52.480;9.806;2022-08-11T13:54:42;30.70;60.30
19348;DHT22;9810;52.480;9.806;2022-08-11T13:57:12;31.00;61.30
19348;DHT22;9810;52.480;9.806;2022-08-11T13:59:44;31.00;62.30
19348;DHT22;9810;52.480;9.806;2022-08-11T14:02:15;31.10;63.00
19348;DHT22;9810;52.480;9.806;2022-08-11T14:04:48;31.20;61.90
19348;DHT22;9810;52.480;9.806;2022-08-11T14:07:20;31.10;63.80
19348;DHT22;9810;52.480;9.806;2022-08-11T14:09:54;30.90;61.30
19348;DHT22;9810;52.480;9.806;2022-08-11T14:12:25;30.90;62.50
19348;DHT22;9810;52.480;9.806;2022-08-11T14:15:15;30.80;61.20
19348;DHT22;9810;52.480;9.806;2022-08-11T14:17:50;31.00;63.70
19348;DHT22;9810;52.480;9.806;2022-08-11T14:20:18;31.10;62.00
19348;DHT22;9810;52.480;9.806;2022-08-11T14:22:46;31.10;60.40
19348;DHT22;9810;52.480;9.806;2022-08-11T14:25:13;31.10;63.30
19348;DHT22;9810;52.480;9.806;2022-08-11T14:27:44;31.00;63.10
19348;DHT22;9810;52.480;9.806;2022-08-11T14:30:14;31.00;61.60
19348;DHT22;9810;52.480;9.806;2022-08-11T14:32:55;31.20;63.10
19348;DHT22;9810;52.480;9.806;2022-08-11T14:35:24;31.00;60.90
19348;DHT22;9810;52.480;9.806;2022-08-11T14:37:52;31.00;62.00
19348;DHT22;9810;52.480;9.806;2022-08-11T14:40:20;30.90;61.40
19348;DHT22;9810;52.480;9.806;2022-08-11T14:43:06;31.00;62.00
19348;DHT22;9810;52.480;9.806;2022-08-11T14:45:51;30.90;63.10
19348;DHT22;9810;52.480;9.806;2022-08-11T14:48:36;31.00;61.90
19348;DHT22;9810;52.480;9.806;2022-08-11T14:51:04;30.90;59.80
19348;DHT22;9810;52.480;9.806;2022-08-11T14:53:32;30.70;61.90
19348;DHT22;9810;52.480;9.806;2022-08-11T14:55:59;30.70;59.60
19348;DHT22;9810;52.480;9.806;2022-08-11T14:58:46;30.70;61.40
19348;DHT22;9810;52.480;9.806;2022-08-11T15:01:13;30.70;63.50
19348;DHT22;9810;52.480;9.806;2022-08-11T15:03:54;30.80;60.10
19348;DHT22;9810;52.480;9.806;2022-08-11T15:06:24;30.70;61.90
19348;DHT22;9810;52.480;9.806;2022-08-11T15:08:53;30.60;59.00
19348;DHT22;9810;52.480;9.806;2022-08-11T15:11:23;30.60;59.20
19348;DHT22;9810;52.480;9.806;2022-08-11T15:14:10;30.50;59.60
19348;DHT22;9810;52.480;9.806;2022-08-11T15:16:41;30.50;60.30
19348;DHT22;9810;52.480;9.806;2022-08-11T15:19:30;30.50;59.40
19348;DHT22;9810;52.480;9.806;2022-08-11T15:21:58;30.60;59.70
19348;DHT22;9810;52.480;9.806;2022-08-11T15:24:44;30.70;59.60
19348;DHT22;9810;52.480;9.806;2022-08-11T15:27:13;30.70;59.10
19348;DHT22;9810;52.480;9.806;2022-08-11T15:30:03;30.70;63.10
19348;DHT22;9810;52.480;9.806;2022-08-11T15:32:48;30.70;59.70
19348;DHT22;9810;52.480;9.806;2022-08-11T15:35:35;30.70;59.70
19348;DHT22;9810;52.480;9.806;2022-08-11T15:38:21;30.50;59.20
19348;DHT22;9810;52.480;9.806;2022-08-11T15:40:53;30.50;60.00
19348;DHT22;9810;52.480;9.806;2022-08-11T15:43:49;30.60;62.00
19348;DHT22;9810;52.480;9.806;2022-08-11T15:46:41;30.50;60.60
19348;DHT22;9810;52.480;9.806;2022-08-11T15:49:11;30.50;60.70
19348;DHT22;9810;52.480;9.806;2022-08-11T15:51:41;30.30;63.30
19348;DHT22;9810;52.480;9.806;2022-08-11T15:54:16;30.40;60.70
19348;DHT22;9810;52.480;9.806;2022-08-11T15:56:49;30.30;62.10
19348;DHT22;9810;52.480;9.806;2022-08-11T15:59:18;30.10;64.70
19348;DHT22;9810;52.480;9.806;2022-08-11T16:02:07;30.00;68.60
19348;DHT22;9810;52.480;9.806;2022-08-11T16:04:52;30.00;66.00
19348;DHT22;9810;52.480;9.806;2022-08-11T16:07:24;30.00;61.70
19348;DHT22;9810;52.480;9.806;2022-08-11T16:09:55;30.10;65.20
19348;DHT22;9810;52.480;9.806;2022-08-11T16:12:26;30.10;60.40
19348;DHT22;9810;52.480;9.806;2022-08-11T16:15:02;30.10;59.80
19348;DHT22;9810;52.480;9.806;2022-08-11T16:18:02;30.10;62.60
19348;DHT22;9810;52.480;9.806;2022-08-11T16:20:32;30.10;60.50
19348;DHT22;9810;52.480;9.806;2022-08-11T16:23:03;30.10;60.00
19348;DHT22;9810;52.480;9.806;2022-08-11T16:25:33;30.10;61.10
19348;DHT22;9810;52.480;9.806;2022-08-11T16:28:03;30.00;60.30
19348;DHT22;9810;52.480;9.806;2022-08-11T16:30:33;30.10;61.50
19348;DHT22;9810;52.480;9.806;2022-08-11T16:33:03;30.00;64.70
19348;DHT22;9810;52.480;9.806;2022-08-11T16:35:35;29.90;60.40
19348;DHT22;9810;52.480;9.806;2022-08-11T16:38:22;29.90;62.40
19348;DHT22;9810;52.480;9.806;2022-08-11T16:41:06;29.90;65.80
19348;DHT22;9810;52.480;9.806;2022-08-11T16:43:39;30.00;64.90
19348;DHT22;9810;52.480;9.806;2022-08-11T16:46:25;30.10;64.70
19348;DHT22;9810;52.480;9.806;2022-08-11T16:49:12;30.10;64.90
19348;DHT22;9810;52.480;9.806;2022-08-11T16:51:42;30.10;63.30
19348;DHT22;9810;52.480;9.806;2022-08-11T16:54:10;29.90;68.10
19348;DHT22;9810;52.480;9.806;2022-08-11T16:56:41;29.90;64.70
19348;DHT22;9810;52.480;9.806;2022-08-11T16:59:14;29.90;63.70
19348;DHT22;9810;52.480;9.806;2022-08-11T17:01:44;29.80;63.50
19348;DHT22;9810;52.480;9.806;2022-08-11T17:04:20;29.60;63.10
19348;DHT22;9810;52.480;9.806;2022-08-11T17:07:07;29.60;63.40
19348;DHT22;9810;52.480;9.806;2022-08-11T17:09:52;29.60;64.10
19348;DHT22;9810;52.480;9.806;2022-08-11T17:12:39;29.50;65.90
19348;DHT22;9810;52.480;9.806;2022-08-11T17:15:25;29.40;64.80
19348;DHT22;9810;52.480;9.806;2022-08-11T17:18:13;29.40;64.10
19348;DHT22;9810;52.480;9.806;2022-08-11T17:21:04;29.40;63.70
19348;DHT22;9810;52.480;9.806;2022-08-11T17:23:34;29.30;65.50
19348;DHT22;9810;52.480;9.806;2022-08-11T17:26:20;29.20;66.20
19348;DHT22;9810;52.480;9.806;2022-08-11T17:28:50;29.10;64.70
19348;DHT22;9810;52.480;9.806;2022-08-11T17:31:22;29.00;64.30
19348;DHT22;9810;52.480;9.806;2022-08-11T17:34:07;29.00;64.10
19348;DHT22;9810;52.480;9.806;2022-08-11T17:36:54;29.10;64.90
19348;DHT22;9810;52.480;9.806;2022-08-11T17:39:25;29.10;64.40
19348;DHT22;9810;52.480;9.806;2022-08-11T17:41:55;29.00;67.00
19348;DHT22;9810;52.480;9.806;2022-08-11T17:44:41;28.80;64.40
19348;DHT22;9810;52.480;9.806;2022-08-11T17:47:28;28.70;65.90
19348;DHT22;9810;52.480;9.806;2022-08-11T17:50:13;28.50;63.80
19348;DHT22;9810;52.480;9.806;2022-08-11T17:52:42;28.40;66.20
19348;DHT22;9810;52.480;9.806;2022-08-11T17:55:29;28.30;66.80